Time;durP1;ratioP1;P1;durP2;ratioP2;P2;SDS_P1;SDS_P2;PMS_P1;PMS_P2;Temp;Humidity;BMP_temperature;BMP_pressure;BME280_temperature;BME280_humidity;BME280_pressure;Samples;Min_cycle;Max_cycle;Signal;HPM_P1;HPM_P2
2021/12/09 00:01:26;;;;;;;17.02;5.70;;;;;;;2.46;100.00;100121.78;5012820;28;20091;-77
2021/12/09 00:04:08;;;;;;;14.45;5.47;;;;;;;2.44;100.00;100124.44;4988555;28;20030;-77
2021/12/09 00:06:36;;;;;;;12.63;5.53;;;;;;;2.43;99.80;100133.16;4995860;28;20048;-77
2021/12/09 00:09:06;;;;;;;15.95;6.10;;;;;;;2.40;99.99;100124.53;4995679;28;20049;-77
2021/12/09 00:11:34;;;;;;;19.20;6.60;;;;;;;2.37;100.00;100128.09;5012300;28;20029;-77
2021/12/09 00:14:00;;;;;;;15.60;5.65;;;;;;;2.35;100.00;100131.63;5013671;28;20049;-78
2021/12/09 00:16:25;;;;;;;16.25;5.70;;;;;;;2.33;100.00;100131.66;5015118;28;20029;-78
2021/12/09 00:18:51;;;;;;;18.08;5.78;;;;;;;2.33;100.00;100136.00;5014611;28;20026;-78
2021/12/09 00:21:16;;;;;;;19.13;6.47;;;;;;;2.32;100.00;100145.63;5014588;28;20088;-78
2021/12/09 00:23:42;;;;;;;15.60;6.28;;;;;;;2.31;100.00;100143.03;5013197;28;20072;-78
2021/12/09 00:26:07;;;;;;;19.80;6.43;;;;;;;2.29;100.00;100149.16;5015135;28;20025;-78
2021/12/09 00:28:33;;;;;;;20.17;5.95;;;;;;;2.26;100.00;100138.78;5014809;28;20101;-77
2021/12/09 00:30:58;;;;;;;21.00;6.70;;;;;;;2.22;100.00;100142.34;5014258;28;20034;-78
2021/12/09 00:33:24;;;;;;;16.67;6.40;;;;;;;2.20;100.00;100136.31;5012750;28;20040;-78
2021/12/09 00:35:55;;;;;;;17.13;6.90;;;;;;;2.18;100.00;100132.84;5014606;28;20021;-78
2021/12/09 00:38:33;;;;;;;20.45;6.80;;;;;;;2.17;100.00;100144.19;5014569;28;20105;-78
2021/12/09 00:40:58;;;;;;;21.20;7.05;;;;;;;2.20;100.00;100141.53;5014426;28;20056;-77
2021/12/09 00:43:24;;;;;;;16.27;6.75;;;;;;;2.21;100.00;100138.03;5014355;28;20078;-78
2021/12/09 00:45:49;;;;;;;23.85;6.78;;;;;;;2.18;100.00;100145.06;5012211;28;20048;-77
2021/12/09 00:48:14;;;;;;;16.58;5.80;;;;;;;2.17;100.00;100138.97;5013159;28;20380;-77
2021/12/09 00:50:40;;;;;;;19.83;6.50;;;;;;;2.16;100.00;100137.22;5014602;28;20037;-78
2021/12/09 00:53:05;;;;;;;20.40;5.45;;;;;;;2.13;100.00;100132.94;5013778;28;20018;-77
2021/12/09 00:55:31;;;;;;;20.60;6.88;;;;;;;2.15;100.00;100140.75;5012623;28;20465;-77
2021/12/09 00:57:56;;;;;;;19.92;8.60;;;;;;;2.15;100.00;100143.38;5014284;28;20060;-74
2021/12/09 01:00:22;;;;;;;23.77;10.25;;;;;;;2.14;100.00;100139.03;5014223;28;20028;-76
2021/12/09 01:02:48;;;;;;;25.02;9.95;;;;;;;2.08;100.00;100137.41;5013622;28;20367;-77
2021/12/09 01:05:14;;;;;;;28.50;10.90;;;;;;;2.07;100.00;100142.66;5012210;28;20482;-73
2021/12/09 01:07:40;;;;;;;19.92;7.60;;;;;;;2.10;100.00;100140.84;5014010;28;20030;-75
2021/12/09 01:10:10;;;;;;;19.00;7.30;;;;;;;2.18;100.00;100129.38;5014301;28;20409;-79
2021/12/09 01:12:36;;;;;;;21.23;7.25;;;;;;;2.21;100.00;100129.31;5013685;28;20034;-78
2021/12/09 01:15:03;;;;;;;18.25;5.95;;;;;;;2.22;100.00;100144.09;5013930;28;20026;-75
2021/12/09 01:17:28;;;;;;;19.52;6.13;;;;;;;2.25;100.00;100126.59;5012252;28;20037;-78
2021/12/09 01:19:54;;;;;;;16.75;6.07;;;;;;;2.26;100.00;100127.47;5013675;28;20030;-79
2021/12/09 01:22:20;;;;;;;23.10;5.93;;;;;;;2.28;100.00;100131.75;5014024;28;20438;-78
2021/12/09 01:24:46;;;;;;;14.82;6.07;;;;;;;2.28;100.00;100131.75;5013261;28;20037;-77
2021/12/09 01:27:12;;;;;;;17.08;5.30;;;;;;;2.30;100.00;100134.31;5011816;28;20022;-78
2021/12/09 01:29:41;;;;;;;16.52;5.85;;;;;;;2.28;99.82;100133.53;5014105;28;20453;-78
2021/12/09 01:32:08;;;;;;;16.48;5.60;;;;;;;2.27;100.00;100130.03;5013613;28;20029;-77
2021/12/09 01:34:36;;;;;;;17.27;5.50;;;;;;;2.23;99.79;100136.22;5013106;28;20069;-75
2021/12/09 01:37:03;;;;;;;19.33;5.82;;;;;;;2.21;100.00;100134.53;5012206;28;20022;-76
2021/12/09 01:39:28;;;;;;;24.50;6.07;;;;;;;2.20;100.00;100138.91;5013487;28;20492;-78
2021/12/09 01:41:55;;;;;;;15.07;6.03;;;;;;;2.17;100.00;100141.56;5013528;28;20036;-76
2021/12/09 01:44:21;;;;;;;22.88;6.30;;;;;;;2.12;100.00;100144.31;5013217;28;20030;-76
2021/12/09 01:46:47;;;;;;;23.25;7.82;;;;;;;2.08;100.00;100139.16;5005224;28;20029;-76
2021/12/09 01:49:12;;;;;;;19.60;7.13;;;;;;;2.09;100.00;100149.56;5011509;28;20393;-78
2021/12/09 01:51:37;;;;;;;24.30;9.73;;;;;;;2.05;100.00;100149.69;5013374;28;20101;-78
2021/12/09 01:54:03;;;;;;;21.90;8.20;;;;;;;1.99;100.00;100153.28;4994982;28;20056;-77
2021/12/09 01:56:29;;;;;;;21.33;7.55;;;;;;;1.93;100.00;100137.72;5013155;28;20026;-78
2021/12/09 01:59:03;;;;;;;21.73;7.53;;;;;;;1.90;100.00;100151.69;5011596;28;20026;-77
2021/12/09 02:01:29;;;;;;;17.65;7.22;;;;;;;1.86;100.00;100155.28;5013066;28;20034;-74
2021/12/09 02:03:56;;;;;;;17.50;6.75;;;;;;;1.80;100.00;100152.78;5013372;28;20030;-78
2021/12/09 02:06:22;;;;;;;21.65;7.15;;;;;;;1.80;100.00;100151.03;5012335;28;20038;-78
2021/12/09 02:08:48;;;;;;;24.75;8.30;;;;;;;1.78;100.00;100154.56;5012006;28;20033;-78
2021/12/09 02:11:14;;;;;;;25.23;9.68;;;;;;;1.80;100.00;100151.03;5012500;28;20033;-77
2021/12/09 02:13:39;;;;;;;22.15;10.20;;;;;;;1.84;100.00;100153.59;5013285;28;20462;-77
2021/12/09 02:16:05;;;;;;;20.73;7.68;;;;;;;1.87;100.00;100146.56;5012490;28;20041;-77
2021/12/09 02:18:31;;;;;;;18.30;8.20;;;;;;;1.87;100.00;100143.09;5013038;28;20033;-76
2021/12/09 02:21:08;;;;;;;22.77;8.18;;;;;;;1.85;100.00;100152.69;5011389;28;20092;-77
2021/12/09 02:23:34;;;;;;;21.13;8.95;;;;;;;1.83;100.00;100147.50;5012373;28;20561;-78
2021/12/09 02:26:00;;;;;;;21.02;7.07;;;;;;;1.88;100.00;100150.00;5012611;28;20032;-76
2021/12/09 02:28:25;;;;;;;21.90;7.47;;;;;;;1.87;100.00;100149.16;5012939;28;20108;-77
2021/12/09 02:30:51;;;;;;;17.60;7.55;;;;;;;1.83;100.00;100150.13;5011423;28;20060;-78
2021/12/09 02:33:16;;;;;;;19.77;7.18;;;;;;;1.87;100.00;100148.31;5012293;28;20417;-78
2021/12/09 02:35:41;;;;;;;21.33;8.65;;;;;;;1.85;100.00;100155.31;4995429;28;20033;-78
2021/12/09 02:38:08;;;;;;;22.92;7.88;;;;;;;1.84;100.00;100146.59;5012212;28;20523;-77
2021/12/09 02:40:34;;;;;;;18.65;7.82;;;;;;;1.81;100.00;100146.66;5012663;28;20026;-76
2021/12/09 02:43:00;;;;;;;21.30;8.30;;;;;;;1.75;100.00;100152.00;5000420;28;20137;-74
2021/12/09 02:45:26;;;;;;;21.02;7.28;;;;;;;1.74;100.00;100153.78;5012434;28;20501;-76
2021/12/09 02:47:51;;;;;;;19.48;7.35;;;;;;;1.73;100.00;100156.41;5012139;28;20041;-76
2021/12/09 02:50:16;;;;;;;19.23;7.18;;;;;;;1.74;100.00;100158.13;5012693;28;20032;-77
2021/12/09 02:52:42;;;;;;;19.05;6.82;;;;;;;1.80;100.00;100150.16;5010897;28;20033;-76
2021/12/09 02:55:08;;;;;;;17.98;6.45;;;;;;;1.87;100.00;100150.94;5012873;28;20025;-76
2021/12/09 02:57:33;;;;;;;19.80;6.50;;;;;;;1.95;100.00;100149.84;5012329;28;20037;-78
2021/12/09 02:59:58;;;;;;;18.75;6.65;;;;;;;1.99;100.00;100147.19;5012145;28;20105;-76
2021/12/09 03:02:24;;;;;;;16.77;5.50;;;;;;;2.08;100.00;100141.78;5010932;28;20390;-74
2021/12/09 03:04:53;;;;;;;20.92;6.88;;;;;;;2.07;100.00;100142.66;5000498;28;20375;-75
2021/12/09 03:07:25;;;;;;;15.82;5.82;;;;;;;2.02;100.00;100152.34;4992488;28;20430;-73
2021/12/09 03:09:55;;;;;;;18.35;6.95;;;;;;;1.94;100.00;100147.28;5004880;28;20030;-75
2021/12/09 03:12:40;;;;;;;21.92;6.55;;;;;;;1.78;100.00;100152.81;5015409;28;20068;-72
2021/12/09 03:15:07;;;;;;;17.52;6.63;;;;;;;1.67;100.00;100154.75;4991201;28;20081;-75
2021/12/09 03:17:33;;;;;;;18.45;7.47;;;;;;;1.62;100.00;100156.59;4996488;28;20023;-75
2021/12/09 03:19:59;;;;;;;18.98;8.32;;;;;;;1.56;100.00;100154.09;4990412;28;20121;-74
2021/12/09 03:22:25;;;;;;;20.83;9.23;;;;;;;1.54;100.00;100159.38;4996174;28;20460;-74
2021/12/09 03:24:51;;;;;;;20.45;9.32;;;;;;;1.50;100.00;100155.09;5009672;28;20383;-78
2021/12/09 03:27:17;;;;;;;23.52;9.88;;;;;;;1.46;100.00;100162.13;5015774;28;20064;-77
2021/12/09 03:29:42;;;;;;;26.08;10.68;;;;;;;1.45;100.00;100157.78;5015742;28;20030;-74
2021/12/09 03:32:12;;;;;;;21.85;9.20;;;;;;;1.42;100.00;100160.47;5015789;28;20473;-73
2021/12/09 03:34:39;;;;;;;20.67;9.57;;;;;;;1.45;100.00;100163.00;5014246;28;20037;-75
2021/12/09 03:37:18;;;;;;;21.92;8.75;;;;;;;1.45;100.00;100157.78;5015715;28;20061;-76
2021/12/09 03:39:44;;;;;;;22.92;7.88;;;;;;;1.52;100.00;100155.06;5013594;28;20446;-79
2021/12/09 03:42:13;;;;;;;19.08;6.72;;;;;;;1.58;100.00;100145.34;5015609;28;20038;-78
2021/12/09 03:44:38;;;;;;;23.27;7.25;;;;;;;1.68;100.00;100151.28;5014093;28;20034;-79
2021/12/09 03:47:06;;;;;;;27.92;6.40;;;;;;;1.77;100.00;100152.84;5015287;28;20104;-78
2021/12/09 03:49:32;;;;;;;32.78;6.93;;;;;;;1.84;100.00;100151.81;5015527;28;20469;-77
2021/12/09 03:51:58;;;;;;;22.98;6.13;;;;;;;1.90;100.00;100156.91;5015014;28;20044;-78
2021/12/09 03:54:25;;;;;;;25.52;7.00;;;;;;;1.88;100.00;100161.34;5015071;28;20109;-75
2021/12/09 03:56:52;;;;;;;23.20;6.82;;;;;;;1.87;100.00;100167.44;5013793;28;20042;-78
2021/12/09 03:59:17;;;;;;;23.40;6.72;;;;;;;1.88;100.00;100160.47;5015125;28;20022;-79
2021/12/09 04:01:44;;;;;;;22.00;6.00;;;;;;;1.85;100.00;100163.13;5014805;28;20030;-77
2021/12/09 04:04:11;;;;;;;16.50;6.05;;;;;;;1.88;100.00;100171.78;5015430;28;20034;-79
2021/12/09 04:06:36;;;;;;;28.00;6.63;;;;;;;1.90;100.00;100166.53;5013876;28;20046;-79
2021/12/09 04:09:05;;;;;;;21.20;6.28;;;;;;;1.91;100.00;100174.31;5014899;28;20454;-79
2021/12/09 04:11:30;;;;;;;21.08;6.10;;;;;;;1.91;100.00;100173.47;5014644;28;20026;-79
2021/12/09 04:13:55;;;;;;;21.33;5.90;;;;;;;1.92;100.00;100175.19;5015011;28;20026;-77
2021/12/09 04:16:21;;;;;;;24.77;6.65;;;;;;;1.91;100.00;100176.06;5014104;28;20030;-79
2021/12/09 04:18:48;;;;;;;19.83;6.07;;;;;;;1.90;100.00;100172.59;5014381;28;20052;-79
2021/12/09 04:21:13;;;;;;;18.83;6.28;;;;;;;1.90;100.00;100166.53;5014468;28;20076;-77
2021/12/09 04:23:39;;;;;;;18.77;5.70;;;;;;;1.91;100.00;100170.84;5014566;28;20022;-78
2021/12/09 04:26:05;;;;;;;23.42;5.75;;;;;;;1.96;100.00;100163.78;5014633;28;20421;-78
2021/12/09 04:28:31;;;;;;;24.25;5.50;;;;;;;1.92;100.00;100162.13;5013245;28;20033;-79
2021/12/09 04:30:57;;;;;;;18.85;5.38;;;;;;;1.91;100.00;100163.03;5014502;28;20069;-78
2021/12/09 04:33:23;;;;;;;21.98;5.43;;;;;;;1.91;100.00;100161.25;5014112;28;20113;-79
2021/12/09 04:35:48;;;;;;;18.27;5.95;;;;;;;1.91;100.00;100158.66;5014579;28;20117;-78
2021/12/09 04:38:14;;;;;;;21.83;6.03;;;;;;;1.90;100.00;100166.53;5013131;28;20471;-77
2021/12/09 04:40:39;;;;;;;22.25;5.47;;;;;;;1.93;100.00;100171.66;5014605;28;20089;-78
2021/12/09 04:43:04;;;;;;;22.60;5.53;;;;;;;1.99;100.00;100168.09;5007207;28;20045;-78
2021/12/09 04:45:33;;;;;;;18.63;5.45;;;;;;;1.96;100.00;100167.25;5014453;28;20386;-78
2021/12/09 04:47:58;;;;;;;17.58;4.95;;;;;;;2.00;100.00;100177.66;5014725;28;20037;-75
2021/12/09 04:50:24;;;;;;;16.25;4.93;;;;;;;2.02;100.00;100189.78;5012648;28;20389;-76
2021/12/09 04:52:50;;;;;;;22.88;5.65;;;;;;;2.00;100.00;100188.09;5013969;28;20116;-75
2021/12/09 04:55:15;;;;;;;21.50;5.50;;;;;;;1.95;100.00;100182.94;5014202;28;20057;-74
2021/12/09 04:57:42;;;;;;;16.48;5.18;;;;;;;1.98;100.00;100189.88;5014289;28;20029;-76
2021/12/09 05:00:11;;;;;;;16.13;4.53;;;;;;;2.00;100.00;100194.16;5012294;28;20117;-78
2021/12/09 05:05:20;;;;;;;16.58;5.00;;;;;;;2.12;100.00;100195.66;4994693;28;20394;-76
2021/12/09 05:07:46;;;;;;;17.92;4.13;;;;;;;2.17;100.00;100195.59;4994819;28;20022;-73
2021/12/09 05:10:12;;;;;;;18.67;4.35;;;;;;;2.17;100.00;100191.19;4995616;28;20027;-77
2021/12/09 05:12:37;;;;;;;18.23;4.43;;;;;;;2.21;100.00;100195.50;4994315;28;20436;-76
2021/12/09 05:15:04;;;;;;;15.90;4.32;;;;;;;2.22;99.75;100204.19;5010085;28;20037;-72
2021/12/09 05:17:29;;;;;;;13.95;3.95;;;;;;;2.19;99.96;100205.09;5013753;28;20029;-75
2021/12/09 05:19:55;;;;;;;20.55;4.60;;;;;;;2.19;99.64;100212.94;5013823;28;20022;-77
2021/12/09 05:22:20;;;;;;;18.25;4.15;;;;;;;2.18;99.67;100212.97;5012491;28;20026;-76
2021/12/09 05:24:49;;;;;;;17.30;4.15;;;;;;;2.15;100.00;100207.78;5013184;28;20022;-75
2021/12/09 05:27:16;;;;;;;17.23;4.30;;;;;;;2.20;100.00;100204.22;5013866;28;20030;-78
2021/12/09 05:29:43;;;;;;;21.15;4.32;;;;;;;2.23;100.00;100193.69;5013833;28;20030;-78
2021/12/09 05:32:12;;;;;;;16.88;4.35;;;;;;;2.20;99.59;100203.34;5012067;28;20490;-78
2021/12/09 05:34:42;;;;;;;15.80;4.43;;;;;;;2.19;100.00;100199.03;5012600;28;20026;-78
2021/12/09 05:37:11;;;;;;;18.50;4.32;;;;;;;2.21;100.00;100190.28;5013416;28;20030;-78
2021/12/09 05:39:37;;;;;;;17.20;4.63;;;;;;;2.24;100.00;100205.03;5011780;28;20478;-78
2021/12/09 05:42:05;;;;;;;19.48;4.70;;;;;;;2.23;100.00;100203.28;5012990;28;20061;-78
2021/12/09 05:44:30;;;;;;;17.50;4.63;;;;;;;2.23;100.00;100200.69;5019595;28;20034;-79
2021/12/09 05:46:57;;;;;;;19.90;4.47;;;;;;;2.24;100.00;100202.41;5012754;28;20049;-79
2021/12/09 05:49:23;;;;;;;14.25;4.63;;;;;;;2.23;100.00;100206.75;5013106;28;20030;-78
2021/12/09 05:51:48;;;;;;;19.10;3.97;;;;;;;2.20;100.00;100211.19;5013490;28;20029;-78
2021/12/09 05:54:14;;;;;;;17.95;4.38;;;;;;;2.19;100.00;100209.47;5012926;28;20363;-72
2021/12/09 05:56:39;;;;;;;21.20;4.78;;;;;;;2.20;100.00;100211.19;5012474;28;20030;-77
2021/12/09 05:59:07;;;;;;;17.52;4.82;;;;;;;2.22;100.00;100218.09;4994940;28;20441;-78
2021/12/09 06:01:33;;;;;;;16.88;4.32;;;;;;;2.24;100.00;100218.09;4988404;28;20080;-79
2021/12/09 06:03:59;;;;;;;17.85;4.50;;;;;;;2.20;100.00;100216.41;5007295;28;20038;-79
2021/12/09 06:06:24;;;;;;;23.15;4.78;;;;;;;2.24;100.00;100229.38;5010557;28;20095;-78
2021/12/09 06:08:50;;;;;;;15.85;4.60;;;;;;;2.31;100.00;100224.88;5012810;28;20363;-78
2021/12/09 06:11:16;;;;;;;18.13;4.75;;;;;;;2.34;100.00;100230.06;5013074;28;20032;-77
2021/12/09 06:13:41;;;;;;;12.18;3.95;;;;;;;2.35;100.00;100217.84;5012622;28;20034;-79
2021/12/09 06:16:08;;;;;;;16.90;4.50;;;;;;;2.31;100.00;100227.50;5018251;28;20425;-78
2021/12/09 06:18:34;;;;;;;16.58;4.72;;;;;;;2.28;100.00;100214.50;5013319;28;20044;-79
2021/12/09 06:20:59;;;;;;;20.35;4.47;;;;;;;2.26;100.00;100227.63;5012980;28;20025;-77
2021/12/09 06:23:25;;;;;;;20.75;4.75;;;;;;;2.22;100.00;100227.69;5012676;28;20359;-79
2021/12/09 06:25:50;;;;;;;16.42;5.03;;;;;;;2.21;100.00;100237.28;5011660;28;20045;-77
2021/12/09 06:28:19;;;;;;;19.80;4.53;;;;;;;2.21;100.00;100228.56;4998123;28;20076;-78
2021/12/09 06:30:45;;;;;;;16.92;4.38;;;;;;;2.21;100.00;100229.47;4992582;28;20045;-73
2021/12/09 06:33:10;;;;;;;19.65;4.95;;;;;;;2.22;100.00;100222.47;5012120;28;20034;-77
2021/12/09 06:35:37;;;;;;;24.77;5.40;;;;;;;2.20;100.00;100222.50;5018661;28;20025;-78
2021/12/09 06:38:04;;;;;;;17.98;4.53;;;;;;;2.16;100.00;100223.44;5019510;28;20038;-77
2021/12/09 06:40:30;;;;;;;16.42;4.50;;;;;;;2.15;100.00;100226.09;5026293;28;20036;-77
2021/12/09 06:42:55;;;;;;;19.42;5.05;;;;;;;2.09;100.00;100225.31;5032134;28;20049;-78
2021/12/09 06:45:22;;;;;;;25.17;5.07;;;;;;;2.12;100.00;100219.16;5032034;28;20053;-79
2021/12/09 06:47:48;;;;;;;19.88;4.80;;;;;;;2.11;100.00;100222.66;5016118;28;20529;-77
2021/12/09 06:50:17;;;;;;;18.13;4.85;;;;;;;2.10;100.00;100228.81;5016527;28;20026;-72
2021/12/09 06:52:42;;;;;;;17.02;5.00;;;;;;;2.12;100.00;100224.41;5036178;28;20017;-74
2021/12/09 06:55:11;;;;;;;22.33;4.88;;;;;;;2.16;100.00;100227.81;5019575;28;20482;-76
2021/12/09 06:57:38;;;;;;;13.93;4.35;;;;;;;2.15;100.00;100219.13;5015978;28;20096;-77
2021/12/09 07:00:07;;;;;;;21.50;5.28;;;;;;;2.15;100.00;100226.97;5015503;28;20030;-73
2021/12/09 07:02:33;;;;;;;26.00;5.63;;;;;;;2.17;100.00;100234.75;5032308;28;20426;-74
2021/12/09 07:04:58;;;;;;;23.80;5.28;;;;;;;2.20;100.00;100237.31;5036045;28;20043;-73
2021/12/09 07:07:23;;;;;;;20.08;5.10;;;;;;;2.22;100.00;100233.75;5019788;28;20052;-75
2021/12/09 07:09:49;;;;;;;19.60;5.55;;;;;;;2.24;100.00;100232.00;5015938;28;20025;-73
2021/12/09 07:12:14;;;;;;;21.30;5.38;;;;;;;2.24;100.00;100241.59;5015839;28;20512;-76
2021/12/09 07:14:40;;;;;;;27.38;5.43;;;;;;;2.24;100.00;100239.84;5015547;28;20034;-78
2021/12/09 07:17:05;;;;;;;17.38;5.40;;;;;;;2.24;100.00;100245.06;5015697;28;20033;-77
2021/12/09 07:19:31;;;;;;;23.02;4.70;;;;;;;2.22;100.00;100243.38;5015816;28;20040;-74
2021/12/09 07:21:56;;;;;;;21.45;5.63;;;;;;;2.20;100.00;100232.94;5015372;28;20101;-77
2021/12/09 07:24:21;;;;;;;20.25;5.53;;;;;;;2.18;100.00;100239.09;5015244;28;20037;-75
2021/12/09 07:26:47;;;;;;;19.13;5.40;;;;;;;2.26;100.00;100237.19;5015466;28;20026;-78
2021/12/09 07:29:12;;;;;;;16.23;6.13;;;;;;;2.25;100.00;100246.78;5015095;28;20034;-73
2021/12/09 07:31:37;;;;;;;16.73;5.15;;;;;;;2.28;100.00;100243.25;5015198;28;20052;-77
2021/12/09 07:34:03;;;;;;;17.27;4.90;;;;;;;2.30;100.00;100251.91;5014539;28;20117;-76
2021/12/09 07:36:28;;;;;;;19.20;4.40;;;;;;;2.32;100.00;100244.91;5015667;28;20114;-76
2021/12/09 07:38:53;;;;;;;21.25;6.00;;;;;;;2.36;100.00;100254.38;5001129;28;20025;-76
2021/12/09 07:41:20;;;;;;;24.83;7.75;;;;;;;2.43;100.00;100247.28;5015419;28;20045;-77
2021/12/09 07:43:45;;;;;;;22.35;5.57;;;;;;;2.50;100.00;100256.72;5027002;28;20465;-75
2021/12/09 07:46:11;;;;;;;18.02;5.60;;;;;;;2.55;100.00;100256.63;5014542;28;20029;-77
2021/12/09 07:48:37;;;;;;;18.33;5.45;;;;;;;2.64;100.00;100255.59;5015419;28;20029;-79
2021/12/09 07:51:03;;;;;;;17.40;5.75;;;;;;;2.69;100.00;100251.97;5016681;28;20099;-79
2021/12/09 07:53:28;;;;;;;18.58;5.50;;;;;;;2.76;100.00;100253.56;5015939;28;20033;-78
2021/12/09 07:55:55;;;;;;;19.23;6.05;;;;;;;2.84;100.00;100260.34;5015591;28;20033;-79
2021/12/09 07:58:21;;;;;;;20.23;5.85;;;;;;;2.91;100.00;100257.56;5013711;28;20037;-79
2021/12/09 08:00:47;;;;;;;21.45;5.78;;;;;;;2.99;100.00;100262.63;5014696;28;20033;-76
2021/12/09 08:03:13;;;;;;;19.23;5.90;;;;;;;3.05;100.00;100265.09;5014894;28;20033;-77
2021/12/09 08:05:41;;;;;;;17.55;5.43;;;;;;;3.10;100.00;100270.25;5014791;28;20038;-79
2021/12/09 08:08:07;;;;;;;18.80;6.72;;;;;;;3.13;100.00;100278.00;5014604;28;20072;-77
2021/12/09 08:10:33;;;;;;;16.42;6.15;;;;;;;3.15;100.00;100291.06;5015121;28;20034;-78
2021/12/09 08:12:59;;;;;;;16.17;5.85;;;;;;;3.23;100.00;100291.75;5014425;28;20089;-79
2021/12/09 08:15:27;;;;;;;18.73;6.25;;;;;;;3.24;99.82;100280.38;5014247;28;20065;-78
2021/12/09 08:20:25;;;;;;;18.08;6.85;;;;;;;3.31;99.94;100291.56;5014519;28;20409;-79
2021/12/09 08:22:51;;;;;;;16.42;5.95;;;;;;;3.33;99.98;100292.41;5014609;28;20080;-80
2021/12/09 08:25:17;;;;;;;19.17;6.60;;;;;;;3.38;99.57;100291.38;5009785;28;20097;-78
2021/12/09 08:27:43;;;;;;;16.38;6.10;;;;;;;3.43;99.87;100291.28;5014744;28;20037;-74
2021/12/09 08:30:14;;;;;;;19.02;6.45;;;;;;;3.44;99.42;100291.25;5013874;28;20026;-78
2021/12/09 08:32:39;;;;;;;21.35;6.45;;;;;;;3.51;99.25;100283.25;5014912;28;20036;-80
2021/12/09 08:35:05;;;;;;;20.45;6.63;;;;;;;3.54;98.95;100288.38;5014176;28;20029;-79
2021/12/09 08:37:30;;;;;;;19.70;6.05;;;;;;;3.54;98.91;100283.16;5013772;28;20034;-78
2021/12/09 08:39:56;;;;;;;19.42;6.45;;;;;;;3.49;98.84;100283.28;5014279;28;20105;-79
2021/12/09 08:42:22;;;;;;;17.20;5.63;;;;;;;3.49;99.01;100291.13;5014512;28;20041;-79
2021/12/09 08:44:48;;;;;;;20.88;6.82;;;;;;;3.51;99.33;100285.84;5014017;28;20437;-78
2021/12/09 08:47:13;;;;;;;16.58;6.35;;;;;;;3.48;99.47;100292.03;5006897;28;20460;-76
2021/12/09 08:49:39;;;;;;;21.60;5.80;;;;;;;3.53;99.06;100284.03;5014263;28;20121;-78
2021/12/09 08:52:05;;;;;;;26.13;7.40;;;;;;;3.55;98.98;100290.13;5017079;28;20059;-78
2021/12/09 08:54:30;;;;;;;20.50;6.60;;;;;;;3.58;99.27;100295.25;5033017;28;20044;-79
2021/12/09 08:56:57;;;;;;;22.45;7.55;;;;;;;3.63;99.05;100297.78;5026721;28;20096;-79
2021/12/09 08:59:25;;;;;;;19.02;7.05;;;;;;;3.60;99.18;100293.47;5013900;28;20025;-79
2021/12/09 09:01:51;;;;;;;21.83;6.97;;;;;;;3.60;99.56;100291.72;5012886;28;20500;-78
2021/12/09 09:04:17;;;;;;;21.27;6.95;;;;;;;3.62;99.47;100299.56;5013963;28;20469;-76
2021/12/09 09:06:54;;;;;;;23.65;6.95;;;;;;;3.64;98.90;100296.88;5013269;28;20030;-74
2021/12/09 09:09:20;;;;;;;18.35;6.95;;;;;;;3.72;99.60;100302.78;5012291;28;20095;-79
2021/12/09 09:11:45;;;;;;;21.83;7.25;;;;;;;3.74;99.07;100298.38;5013105;28;20350;-77
2021/12/09 09:14:10;;;;;;;20.05;7.43;;;;;;;3.82;98.89;100300.78;5013488;28;20547;-79
2021/12/09 09:16:36;;;;;;;21.75;7.13;;;;;;;3.84;98.69;100299.84;5013704;28;20073;-80
2021/12/09 09:19:01;;;;;;;21.27;7.35;;;;;;;3.86;98.71;100300.69;5013523;28;20527;-78
2021/12/09 09:21:28;;;;;;;20.33;6.90;;;;;;;3.89;98.96;100305.00;5004581;28;20038;-80
2021/12/09 09:23:56;;;;;;;22.00;7.93;;;;;;;3.94;98.70;100303.13;4993508;28;20371;-79
2021/12/09 09:26:21;;;;;;;15.75;7.32;;;;;;;3.97;98.48;100302.16;4994065;28;20026;-80
2021/12/09 09:28:47;;;;;;;19.65;7.55;;;;;;;4.03;98.86;100307.22;5006793;28;20041;-81
2021/12/09 09:31:24;;;;;;;22.08;8.07;;;;;;;4.08;98.35;100303.59;5066323;28;20407;-76
2021/12/09 09:33:49;;;;;;;22.33;7.50;;;;;;;4.19;98.78;100298.06;5066611;28;20025;-78
2021/12/09 09:36:15;;;;;;;16.48;7.20;;;;;;;4.25;97.55;100312.78;5069037;28;20086;-76
2021/12/09 09:38:40;;;;;;;19.10;7.03;;;;;;;4.26;97.55;100304.00;5068957;28;20032;-79
2021/12/09 09:41:10;;;;;;;23.75;7.70;;;;;;;4.29;97.58;100303.06;5069386;28;20433;-78
2021/12/09 09:46:12;;;;;;;24.27;8.10;;;;;;;4.64;96.77;100302.03;5069526;28;20048;-78
2021/12/09 09:48:39;;;;;;;17.60;7.50;;;;;;;4.79;95.87;100307.78;5069997;28;20041;-77
2021/12/09 09:51:06;;;;;;;21.33;7.72;;;;;;;4.80;95.45;100301.63;5069460;28;20090;-79
2021/12/09 09:53:32;;;;;;;19.17;7.90;;;;;;;4.73;95.44;100306.16;5068641;28;20052;-78
2021/12/09 09:55:58;;;;;;;18.25;8.40;;;;;;;4.52;96.54;100299.78;5069699;28;20104;-79
2021/12/09 09:58:25;;;;;;;23.88;8.82;;;;;;;4.83;97.06;100299.75;5069662;28;20441;-77
2021/12/09 10:00:51;;;;;;;23.20;8.65;;;;;;;4.99;94.47;100313.28;5068544;28;20514;-80
2021/12/09 10:03:17;;;;;;;20.20;8.52;;;;;;;4.81;95.14;100308.56;5069043;28;20542;-77
2021/12/09 10:05:47;;;;;;;20.85;8.50;;;;;;;4.61;95.76;100312.63;5049484;28;20029;-73
2021/12/09 10:08:16;;;;;;;20.17;9.45;;;;;;;4.51;96.56;100316.44;5048968;28;20120;-70
2021/12/09 10:10:44;;;;;;;26.02;9.80;;;;;;;4.46;96.85;100316.53;5059388;28;20036;-78
2021/12/09 10:13:13;;;;;;;22.23;9.20;;;;;;;4.58;97.61;100323.22;5069227;28;20025;-78
2021/12/09 10:15:44;;;;;;;23.10;10.00;;;;;;;4.75;97.15;100320.13;5058901;28;20024;-78
2021/12/09 10:18:10;;;;;;;22.80;10.10;;;;;;;4.71;96.31;100315.88;5048938;28;20024;-77
2021/12/09 10:20:50;;;;;;;22.10;9.00;;;;;;;4.70;96.02;100324.63;5054976;28;20047;-77
2021/12/09 10:23:24;;;;;;;23.60;10.40;;;;;;;4.74;97.31;100321.00;5068253;28;20021;-74
2021/12/09 10:26:11;;;;;;;20.88;9.10;;;;;;;4.71;96.43;100324.59;5068933;28;20103;-77
2021/12/09 10:28:37;;;;;;;21.42;9.60;;;;;;;4.71;96.95;100321.13;5067539;28;20036;-78
2021/12/09 10:31:15;;;;;;;21.02;8.88;;;;;;;4.68;97.24;100318.56;5067708;28;20895;-79
2021/12/09 10:34:27;;;;;;;20.75;9.23;;;;;;;4.70;97.99;100315.00;5068809;28;20028;-78
2021/12/09 10:36:52;;;;;;;20.65;10.00;;;;;;;4.81;97.63;100300.69;5046237;28;20033;-78
2021/12/09 10:39:28;;;;;;;22.45;9.07;;;;;;;4.98;97.15;100289.72;5029675;28;20472;-81
2021/12/09 10:41:56;;;;;;;24.45;9.73;;;;;;;5.23;95.82;100295.91;5037127;28;20167;-79
2021/12/09 10:44:35;;;;;;;22.77;10.10;;;;;;;5.28;94.50;100285.28;5033153;28;20099;-80
2021/12/09 10:47:20;;;;;;;19.77;9.85;;;;;;;5.30;94.68;100298.34;5031974;28;20069;-78
2021/12/09 10:50:07;;;;;;;28.92;10.52;;;;;;;5.14;95.79;100297.97;5031901;28;20076;-74
2021/12/09 10:53:00;;;;;;;21.73;9.82;;;;;;;5.14;95.45;100297.97;5012556;28;20072;-80
2021/12/09 10:55:32;;;;;;;22.27;10.55;;;;;;;5.17;95.94;100292.63;5013377;28;20096;-79
2021/12/09 10:58:03;;;;;;;25.65;10.02;;;;;;;5.10;95.30;100297.19;5013396;28;20078;-80
2021/12/09 11:00:35;;;;;;;20.95;10.23;;;;;;;5.12;96.03;100294.53;4996301;28;20037;-74
2021/12/09 11:03:10;;;;;;;24.98;10.45;;;;;;;5.00;96.47;100283.53;5020162;28;20091;-75
2021/12/09 11:05:42;;;;;;;23.08;10.18;;;;;;;5.03;96.85;100300.94;5032517;28;20025;-77
2021/12/09 11:08:18;;;;;;;20.20;10.02;;;;;;;5.04;95.98;100286.91;5032798;28;20048;-79
2021/12/09 11:10:48;;;;;;;28.20;10.63;;;;;;;5.04;96.21;100289.53;5032943;28;20033;-73
2021/12/09 11:13:17;;;;;;;23.75;10.20;;;;;;;5.10;96.33;100289.31;5028079;28;20037;-71
2021/12/09 11:15:55;;;;;;;21.35;10.90;;;;;;;5.03;95.93;100291.28;5053334;28;20095;-72
2021/12/09 11:18:43;;;;;;;20.42;10.68;;;;;;;5.00;96.27;100301.88;5053599;28;20079;-74
2021/12/09 11:21:25;;;;;;;29.05;12.10;;;;;;;4.98;97.67;100292.34;5052952;28;20043;-78
2021/12/09 11:24:05;;;;;;;25.27;11.80;;;;;;;4.93;96.61;100297.72;5042730;28;20477;-78
2021/12/09 11:29:35;;;;;;;27.85;14.15;;;;;;;4.90;97.51;100295.19;5054599;28;20060;-79
2021/12/09 11:32:15;;;;;;;29.60;12.82;;;;;;;4.88;98.46;100286.50;5047944;28;20036;-75